Time;durP1;ratioP1;P1;durP2;ratioP2;P2;SDS_P1;SDS_P2;PMS_P1;PMS_P2;Temp;Humidity;BMP_temperature;BMP_pressure;BME280_temperature;BME280_humidity;BME280_pressure;Samples;Min_cycle;Max_cycle;Signal;HPM_P1;HPM_P2
2021/06/07 00:00:57;;;;;;;;;9.00;8.25;;;;;24.68;44.01;101507.88;5003033;28;48058;-79
2021/06/07 00:03:23;;;;;;;;;11.75;11.00;;;;;24.67;44.16;101508.81;4993698;28;45274;-80
2021/06/07 00:05:48;;;;;;;;;9.50;9.00;;;;;24.64;43.97;101508.91;5001737;28;59572;-80
2021/06/07 00:08:14;;;;;;;;;11.00;11.00;;;;;24.62;43.99;101510.75;5002489;28;45246;-80
2021/06/07 00:10:39;;;;;;;;;9.00;7.25;;;;;24.61;44.10;101503.69;4984662;28;54712;-79
2021/06/07 00:13:06;;;;;;;;;11.00;11.00;;;;;24.61;43.89;101505.50;4982320;28;45271;-80
2021/06/07 00:15:31;;;;;;;;;12.00;9.75;;;;;24.60;44.00;101493.06;5000538;28;45171;-79
2021/06/07 00:17:57;;;;;;;;;8.25;8.25;;;;;24.60;44.42;101496.63;4960898;28;45392;-79
2021/06/07 00:20:47;;;;;;;;;10.00;9.50;;;;;24.55;43.92;101492.38;4968486;28;47911;-78
2021/06/07 00:23:12;;;;;;;;;8.00;8.00;;;;;24.58;44.15;101498.44;4983088;28;45394;-78
2021/06/07 00:25:39;;;;;;;;;9.00;8.50;;;;;24.57;43.99;101493.16;4985754;28;45327;-79
2021/06/07 00:28:05;;;;;;;;;11.25;10.25;;;;;24.56;44.37;101494.09;4984878;28;45531;-78
2021/06/07 00:30:30;;;;;;;;;8.00;8.00;;;;;24.45;44.75;101473.16;4966501;28;46227;-78
2021/06/07 00:32:55;;;;;;;;;11.50;10.50;;;;;24.52;44.01;101486.22;4982232;28;47667;-79
2021/06/07 00:35:22;;;;;;;;;10.25;9.75;;;;;24.53;44.53;101487.09;4966452;28;45327;-79
2021/06/07 00:37:47;;;;;;;;;8.75;8.00;;;;;24.52;44.69;101488.00;4966204;28;45418;-79
2021/06/07 00:40:16;;;;;;;;;10.25;9.00;;;;;24.48;44.03;101486.38;4982358;28;47403;-79
2021/06/07 00:42:42;;;;;;;;;8.00;7.50;;;;;24.47;44.21;101490.84;4995073;28;45365;-79
2021/06/07 00:45:13;;;;;;;;;8.00;8.00;;;;;24.44;44.75;101488.28;4999992;28;45392;-79
2021/06/07 00:47:39;;;;;;;;;10.00;8.00;;;;;24.39;44.96;101484.03;4982517;28;45552;-79
2021/06/07 00:50:11;;;;;;;;;7.75;7.00;;;;;24.37;44.93;101480.56;4966117;28;45414;-79
2021/06/07 00:52:36;;;;;;;;;8.25;8.25;;;;;24.35;44.81;101482.44;4982005;28;45385;-79
2021/06/07 00:55:03;;;;;;;;;7.00;6.75;;;;;24.35;45.16;101485.09;5009503;28;45179;-79
2021/06/07 00:57:29;;;;;;;;;8.00;8.00;;;;;24.36;44.72;101485.03;4997362;28;45699;-79
2021/06/07 00:59:54;;;;;;;;;7.25;7.25;;;;;24.36;44.31;101484.16;4985311;28;48307;-79
2021/06/07 01:02:20;;;;;;;;;10.00;9.00;;;;;24.32;45.09;101487.84;4988143;28;52709;-79
2021/06/07 01:04:45;;;;;;;;;8.25;8.25;;;;;24.32;45.02;101479.84;5004063;28;45568;-79
2021/06/07 01:07:10;;;;;;;;;8.25;8.25;;;;;24.34;44.78;101484.22;4986378;28;56345;-79
2021/06/07 01:09:36;;;;;;;;;9.00;8.00;;;;;24.34;45.14;101478.88;4968668;28;64703;-79
2021/06/07 01:12:01;;;;;;;;;7.25;7.25;;;;;24.33;44.47;101473.63;4998185;28;45720;-79
2021/06/07 01:14:27;;;;;;;;;9.25;9.25;;;;;24.34;45.24;101476.22;4969163;28;45428;-79
2021/06/07 01:16:52;;;;;;;;;8.00;7.25;;;;;24.32;44.23;101474.50;4985151;28;47522;-79
2021/06/07 01:19:18;;;;;;;;;8.50;8.50;;;;;24.28;45.07;101468.41;4968610;28;55945;-79
2021/06/07 01:21:43;;;;;;;;;10.75;10.00;;;;;24.30;45.04;101474.53;5002680;28;45329;-79
2021/06/07 01:24:09;;;;;;;;;10.00;7.00;;;;;24.32;44.73;101477.19;4977062;28;45671;-79
2021/06/07 01:26:34;;;;;;;;;9.25;9.00;;;;;24.32;45.17;101471.84;4990009;28;45242;-79
2021/06/07 01:28:59;;;;;;;;;7.75;7.75;;;;;24.30;44.45;101473.66;4951614;28;67004;-79
2021/06/07 01:31:25;;;;;;;;;8.00;7.75;;;;;24.30;44.16;101479.88;4968811;28;45270;-79
2021/06/07 01:33:52;;;;;;;;;10.00;10.00;;;;;24.31;44.71;101483.41;4985325;28;45314;-79
2021/06/07 01:36:17;;;;;;;;;7.75;7.75;;;;;24.24;45.15;101475.66;4984919;28;45506;-79
2021/06/07 01:38:43;;;;;;;;;8.25;8.25;;;;;24.28;44.97;101483.53;4957338;28;47253;-79
2021/06/07 01:41:10;;;;;;;;;8.25;8.25;;;;;24.19;44.39;101466.94;4982549;28;55997;-79
2021/06/07 01:43:36;;;;;;;;;8.25;8.25;;;;;24.28;44.19;101487.06;5022395;28;45450;-79
2021/06/07 01:46:02;;;;;;;;;9.25;8.25;;;;;24.18;45.01;101470.53;5022134;28;45379;-79
2021/06/07 01:48:27;;;;;;;;;8.25;7.75;;;;;24.19;44.55;101466.94;5022331;28;45449;-79
2021/06/07 01:50:54;;;;;;;;;8.75;8.75;;;;;24.22;45.03;101476.59;5020604;28;45354;-79
2021/06/07 01:53:21;;;;;;;;;9.00;8.00;;;;;24.20;45.01;101478.47;4976907;28;45381;-79
2021/06/07 01:55:49;;;;;;;;;9.00;8.00;;;;;24.19;45.37;101477.59;4986160;28;45808;-79
2021/06/07 01:58:15;;;;;;;;;9.75;8.25;;;;;24.18;44.98;101470.53;4968310;28;45465;-79
2021/06/07 02:00:43;;;;;;;;;10.00;10.00;;;;;24.15;45.07;101470.66;4978147;28;45778;-79
2021/06/07 02:03:09;;;;;;;;;8.50;8.50;;;;;24.10;45.17;101472.59;4977404;28;45448;-79
2021/06/07 02:05:37;;;;;;;;;8.00;7.50;;;;;24.10;45.10;101477.94;4984363;28;45518;-79
2021/06/07 02:08:05;;;;;;;;;9.25;9.00;;;;;24.08;45.27;101478.91;4995161;28;47373;-79
2021/06/07 02:10:32;;;;;;;;;10.75;9.00;;;;;24.07;45.79;101480.72;4967883;28;45880;-79
2021/06/07 02:12:58;;;;;;;;;8.00;7.25;;;;;24.05;45.58;101477.19;4968137;28;45334;-79
2021/06/07 02:15:23;;;;;;;;;9.00;8.00;;;;;24.02;44.92;101469.31;4968184;28;45407;-79
2021/06/07 02:17:49;;;;;;;;;7.25;7.25;;;;;24.03;45.46;101471.06;4957572;28;47362;-78
2021/06/07 02:20:16;;;;;;;;;6.75;6.75;;;;;24.06;45.15;101481.59;4970503;28;45281;-78
2021/06/07 02:22:42;;;;;;;;;7.50;7.50;;;;;24.05;45.49;101474.53;5004230;28;45218;-79
2021/06/07 02:25:08;;;;;;;;;11.75;11.25;;;;;24.05;45.09;101479.88;5001417;28;45258;-79
2021/06/07 02:27:33;;;;;;;;;7.75;7.75;;;;;24.02;45.74;101469.31;5001426;28;46249;-79
2021/06/07 02:30:00;;;;;;;;;9.00;7.75;;;;;24.02;45.83;101469.31;4983934;28;45421;-79
2021/06/07 02:32:25;;;;;;;;;10.00;9.00;;;;;23.99;45.78;101463.25;4976998;28;45313;-79
2021/06/07 02:34:51;;;;;;;;;7.75;7.75;;;;;24.00;45.36;101471.19;5006069;28;45394;-79
2021/06/07 02:37:16;;;;;;;;;8.25;8.25;;;;;24.00;46.02;101470.31;4976411;28;45294;-79
2021/06/07 02:39:42;;;;;;;;;8.75;7.75;;;;;23.97;46.08;101468.59;4987289;28;45523;-79
2021/06/07 02:42:08;;;;;;;;;7.00;7.00;;;;;24.02;45.86;101474.66;5003749;28;45296;-79
2021/06/07 02:44:34;;;;;;;;;6.50;5.25;;;;;24.04;45.55;101472.78;4983855;28;45316;-79
2021/06/07 02:46:59;;;;;;;;;9.00;6.75;;;;;24.03;46.17;101472.84;5001132;28;56949;-79
2021/06/07 02:49:24;;;;;;;;;7.00;7.00;;;;;24.03;46.28;101475.53;4986626;28;45538;-79
2021/06/07 02:51:50;;;;;;;;;8.00;7.00;;;;;23.99;45.81;101468.56;5002249;28;45524;-79
2021/06/07 02:54:15;;;;;;;;;9.00;8.00;;;;;23.97;45.60;101465.94;4983394;28;45269;-80
2021/06/07 02:56:41;;;;;;;;;10.25;10.25;;;;;24.03;45.39;101475.53;5002830;28;56296;-80
2021/06/07 02:59:06;;;;;;;;;10.00;9.00;;;;;23.97;46.25;101466.81;5000718;28;45245;-80
2021/06/07 03:01:31;;;;;;;;;11.75;7.00;;;;;23.99;45.46;101476.56;4970232;28;45370;-80
2021/06/07 03:03:57;;;;;;;;;7.75;7.75;;;;;23.98;46.12;101483.69;5002163;28;49999;-80
2021/06/07 03:06:22;;;;;;;;;8.00;6.00;;;;;23.98;45.99;101481.03;5000048;28;47077;-80
2021/06/07 03:08:48;;;;;;;;;8.75;8.00;;;;;23.92;45.93;101474.09;4955063;28;47557;-80
2021/06/07 03:11:13;;;;;;;;;8.25;6.50;;;;;23.94;46.09;101477.59;4967657;28;45259;-80
2021/06/07 03:13:39;;;;;;;;;8.00;8.00;;;;;23.96;46.17;101480.19;4966885;28;47175;-80
2021/06/07 03:16:04;;;;;;;;;6.00;6.00;;;;;23.95;45.92;101479.31;4983480;28;46624;-79
2021/06/07 03:18:30;;;;;;;;;7.25;7.25;;;;;23.91;45.92;101477.69;4967118;28;45750;-79
2021/06/07 03:20:55;;;;;;;;;7.50;7.50;;;;;23.90;46.11;101475.09;4956976;28;45310;-80
2021/06/07 03:23:27;;;;;;;;;7.00;7.00;;;;;23.91;46.24;101479.50;4969543;28;45514;-80
2021/06/07 03:25:53;;;;;;;;;12.00;9.00;;;;;23.91;46.60;101476.81;4967472;28;47301;-80
2021/06/07 03:28:19;;;;;;;;;9.00;7.75;;;;;23.88;46.22;101477.78;4986263;28;45289;-79
2021/06/07 03:30:44;;;;;;;;;11.25;9.00;;;;;23.86;45.82;101479.63;4970434;28;45467;-80
2021/06/07 03:33:10;;;;;;;;;7.75;7.75;;;;;23.85;45.78;101482.38;4986515;28;45433;-79
2021/06/07 03:35:37;;;;;;;;;8.00;6.75;;;;;23.83;46.79;101474.41;4992462;28;45369;-80
2021/06/07 03:38:03;;;;;;;;;8.75;8.75;;;;;23.85;46.52;101477.91;4964559;28;45518;-79
2021/06/07 03:40:30;;;;;;;;;6.75;6.75;;;;;23.86;45.83;101473.44;5000079;28;45522;-80
2021/06/07 03:42:56;;;;;;;;;10.00;8.75;;;;;23.87;46.07;101467.19;4982370;28;45240;-79
2021/06/07 03:45:22;;;;;;;;;9.00;9.00;;;;;23.81;46.02;101468.28;5002593;28;46215;-80
2021/06/07 03:47:47;;;;;;;;;7.50;7.50;;;;;23.81;45.81;101475.41;4982625;28;54339;-80
2021/06/07 03:50:16;;;;;;;;;9.00;8.25;;;;;23.77;46.48;101474.63;4977518;28;45247;-80
2021/06/07 03:52:41;;;;;;;;;10.75;9.00;;;;;23.72;46.21;101468.59;4984254;28;45436;-79
2021/06/07 03:55:08;;;;;;;;;8.50;8.50;;;;;23.69;46.59;101464.22;4986033;28;46774;-79
2021/06/07 03:57:33;;;;;;;;;9.00;8.50;;;;;23.71;46.16;101468.63;5001995;28;45416;-80
2021/06/07 03:59:59;;;;;;;;;8.00;7.75;;;;;23.69;46.58;101469.53;5002310;28;53365;-80
2021/06/07 04:02:24;;;;;;;;;9.75;6.50;;;;;23.68;46.62;101470.47;5002966;28;45274;-80
2021/06/07 04:04:49;;;;;;;;;7.50;6.75;;;;;23.68;46.51;101466.94;4966510;28;47001;-79
2021/06/07 04:07:17;;;;;;;;;7.25;7.25;;;;;23.70;46.33;101467.75;4982720;28;45290;-80
2021/06/07 04:09:43;;;;;;;;;8.75;7.75;;;;;23.69;45.97;101464.22;4967298;28;45278;-80
2021/06/07 04:12:09;;;;;;;;;8.50;7.50;;;;;23.67;46.68;101466.06;4982333;28;45540;-80
2021/06/07 04:14:35;;;;;;;;;9.00;9.00;;;;;23.64;46.55;101463.50;4982521;28;46118;-79
2021/06/07 04:17:00;;;;;;;;;8.50;7.00;;;;;23.64;46.65;101460.84;4979489;28;45267;-80
2021/06/07 04:19:25;;;;;;;;;10.00;8.25;;;;;23.68;46.13;101462.47;4966348;28;48900;-79
2021/06/07 04:21:51;;;;;;;;;9.00;7.75;;;;;23.67;46.56;101460.75;4981897;28;59646;-80
2021/06/07 04:24:17;;;;;;;;;7.75;7.00;;;;;23.67;46.60;101468.72;4966075;28;46666;-80
2021/06/07 04:26:42;;;;;;;;;10.25;9.25;;;;;23.66;46.06;101469.66;4965933;28;45270;-80
2021/06/07 04:29:08;;;;;;;;;9.00;8.75;;;;;23.66;46.67;101472.31;4975259;28;51930;-80
2021/06/07 04:31:33;;;;;;;;;9.75;9.75;;;;;23.65;45.86;101467.91;4982955;28;45416;-80
2021/06/07 04:33:59;;;;;;;;;8.25;7.25;;;;;23.62;46.79;101470.66;4966298;28;46048;-81
2021/06/07 04:36:24;;;;;;;;;9.50;8.50;;;;;23.63;46.23;101468.88;4982067;28;49597;-80
2021/06/07 04:38:49;;;;;;;;;9.00;8.00;;;;;23.63;46.62;101471.53;4976309;28;45467;-79
2021/06/07 04:41:15;;;;;;;;;8.75;8.50;;;;;23.61;46.36;101466.25;4975693;28;53339;-79
2021/06/07 04:43:40;;;;;;;;;9.50;9.50;;;;;23.61;46.85;101465.41;5004971;28;51373;-79
2021/06/07 04:46:09;;;;;;;;;9.25;8.25;;;;;23.60;46.53;101466.31;5005355;28;45332;-80
2021/06/07 04:48:34;;;;;;;;;9.75;9.75;;;;;23.58;46.35;101465.47;4989063;28;45457;-80
2021/06/07 04:51:00;;;;;;;;;7.50;7.50;;;;;23.54;46.59;101467.34;4969970;28;46018;-80
2021/06/07 04:53:25;;;;;;;;;11.25;9.75;;;;;23.57;46.31;101471.72;4969666;28;45441;-80
2021/06/07 04:55:51;;;;;;;;;10.25;10.25;;;;;23.53;46.97;101459.41;4969290;28;45676;-80
2021/06/07 04:58:19;;;;;;;;;11.50;10.00;;;;;23.51;47.40;101461.25;4980309;28;45500;-80
2021/06/07 05:00:47;;;;;;;;;12.25;10.50;;;;;23.57;47.26;101471.72;4972681;28;45671;-79
2021/06/07 05:03:12;;;;;;;;;12.50;10.75;;;;;23.59;47.30;101470.78;4972556;28;47273;-80
2021/06/07 05:05:38;;;;;;;;;11.50;8.75;;;;;23.55;47.47;101461.13;4969019;28;45264;-80
2021/06/07 05:08:06;;;;;;;;;11.75;10.75;;;;;23.61;47.23;101468.94;4969701;28;45302;-80
2021/06/07 05:10:32;;;;;;;;;8.00;8.00;;;;;23.63;46.78;101469.78;4966514;28;45649;-81
2021/06/07 05:12:58;;;;;;;;;10.25;6.75;;;;;23.61;46.42;101474.25;4985063;28;45827;-80
2021/06/07 05:15:23;;;;;;;;;9.25;8.75;;;;;23.58;47.16;101460.16;4981695;28;45558;-81
2021/06/07 05:17:52;;;;;;;;;9.50;9.00;;;;;23.64;46.15;101476.84;4979559;28;45468;-81
2021/06/07 05:20:22;;;;;;;;;14.00;14.00;;;;;23.64;46.31;101466.19;4981981;28;45488;-82
2021/06/07 05:22:50;;;;;;;;;9.50;9.50;;;;;23.64;46.62;101470.66;5002816;28;46008;-81
2021/06/07 05:25:21;;;;;;;;;8.50;8.50;;;;;23.50;46.58;101447.06;4984994;28;45305;-78
2021/06/07 05:27:47;;;;;;;;;11.50;9.75;;;;;23.68;46.34;101478.47;4995902;28;45365;-81
2021/06/07 05:30:13;;;;;;;;;25.75;23.25;;;;;23.74;46.75;101479.19;5004653;28;45328;-81
2021/06/07 05:32:45;;;;;;;;;28.00;24.75;;;;;23.57;48.39;101432.63;4968741;28;45468;-82
2021/06/07 05:35:12;;;;;;;;;16.25;15.50;;;;;23.89;48.53;101462.66;4984891;28;45348;-78
2021/06/07 05:37:37;;;;;;;;;11.50;11.50;;;;;23.88;48.38;101456.44;4970438;28;45416;-76
2021/06/07 05:40:04;;;;;;;;;12.00;10.50;;;;;24.09;47.35;101476.19;5002916;28;45372;-80
2021/06/07 05:42:30;;;;;;;;;10.75;10.25;;;;;24.15;46.00;101483.06;4980686;28;47344;-80
2021/06/07 05:44:55;;;;;;;;;12.25;12.00;;;;;24.19;45.19;101482.06;5007924;28;51440;-79
2021/06/07 05:47:20;;;;;;;;;13.00;10.25;;;;;24.14;44.88;101478.69;4986255;28;51473;-76
2021/06/07 05:49:46;;;;;;;;;14.50;12.00;;;;;24.14;44.80;101473.34;5003101;28;45237;-84
2021/06/07 05:52:11;;;;;;;;;14.25;9.75;;;;;24.27;45.61;101484.47;4992405;28;45326;-78
2021/06/07 05:54:37;;;;;;;;;18.00;15.00;;;;;24.34;44.53;101480.69;5002041;28;47377;-75
2021/06/07 05:57:06;;;;;;;;;13.50;13.00;;;;;24.39;44.17;101476.03;5002257;28;45184;-74
2021/06/07 05:59:32;;;;;;;;;9.25;9.25;;;;;24.43;44.12;101475.00;4968596;28;45326;-76
2021/06/07 06:02:01;;;;;;;;;11.25;11.25;;;;;24.52;44.25;101483.56;4984292;28;47421;-78
2021/06/07 06:04:26;;;;;;;;;10.00;9.75;;;;;24.56;43.36;101480.75;4986785;28;45259;-80
2021/06/07 06:06:51;;;;;;;;;12.00;11.50;;;;;24.60;43.50;101477.06;4984704;28;45846;-88
2021/06/07 06:09:17;;;;;;;;;12.00;9.00;;;;;24.63;42.59;101485.81;4999669;28;45286;-81
2021/06/07 06:11:42;;;;;;;;;12.50;10.00;;;;;24.64;42.76;101481.34;4951837;28;48197;-82
2021/06/07 06:14:08;;;;;;;;;9.00;9.00;;;;;24.67;43.53;101474.09;4967985;28;45399;-83
2021/06/07 06:16:34;;;;;;;;;12.50;10.00;;;;;24.75;42.72;101481.81;4963929;28;45259;-84
2021/06/07 06:18:59;;;;;;;;;9.75;9.75;;;;;24.81;43.06;101486.91;4967905;28;45665;-85
2021/06/07 06:21:27;;;;;;;;;10.50;10.50;;;;;24.90;42.32;101486.56;4976485;28;48048;-76
2021/06/07 06:23:56;;;;;;;;;13.75;12.25;;;;;24.95;41.43;101486.41;5007064;28;45406;-77
2021/06/07 06:26:27;;;;;;;;;11.75;10.00;;;;;24.97;41.33;101488.06;5003922;28;45239;-79
2021/06/07 06:28:52;;;;;;;;;12.00;10.00;;;;;24.97;40.86;101495.22;4980868;28;45572;-81
2021/06/07 06:31:18;;;;;;;;;11.00;11.00;;;;;24.97;41.76;101492.53;4980339;28;57098;-77
2021/06/07 06:33:43;;;;;;;;;10.00;9.00;;;;;24.99;41.33;101496.88;4958060;28;45496;-81
2021/06/07 06:36:11;;;;;;;;;12.25;10.75;;;;;25.05;41.63;101495.81;4987445;28;45468;-77
2021/06/07 06:38:36;;;;;;;;;13.25;12.25;;;;;25.07;41.34;101497.50;5003711;28;45251;-76
2021/06/07 06:41:03;;;;;;;;;11.25;9.25;;;;;25.05;41.80;101493.16;5020658;28;46186;-75
2021/06/07 06:43:28;;;;;;;;;12.00;10.00;;;;;25.05;40.88;101493.16;4951265;28;45426;-75
2021/06/07 06:45:54;;;;;;;;;12.25;10.75;;;;;25.03;40.45;101498.56;4983768;28;45934;-76
2021/06/07 06:48:19;;;;;;;;;11.50;10.50;;;;;25.02;41.49;101485.22;4984055;28;45442;-77
2021/06/07 06:50:47;;;;;;;;;14.50;13.00;;;;;25.06;42.10;101494.88;4991612;28;46168;-75
2021/06/07 06:53:17;;;;;;;;;14.25;13.00;;;;;25.10;41.09;101491.16;4998783;28;45494;-78
2021/06/07 06:55:46;;;;;;;;;14.00;12.75;;;;;25.13;41.23;101487.50;5015992;28;45420;-76
2021/06/07 06:58:11;;;;;;;;;13.25;11.50;;;;;25.17;41.22;101490.00;4976949;28;45457;-79
2021/06/07 07:00:37;;;;;;;;;13.50;12.00;;;;;25.20;40.83;101492.56;4995830;28;45535;-77
2021/06/07 07:03:14;;;;;;;;;11.25;10.25;;;;;25.05;41.40;101453.97;5015402;28;45484;-76
2021/06/07 07:05:40;;;;;;;;;9.75;9.25;;;;;25.23;40.79;101486.22;4999923;28;45645;-76
2021/06/07 07:08:05;;;;;;;;;11.25;10.75;;;;;25.21;42.28;101486.28;5013787;28;45574;-76
2021/06/07 07:10:31;;;;;;;;;14.25;13.00;;;;;25.25;41.01;101485.22;5012048;28;54968;-76
2021/06/07 07:12:56;;;;;;;;;12.00;11.00;;;;;25.24;41.91;101488.81;5001201;28;45440;-77
2021/06/07 07:15:22;;;;;;;;;12.00;11.50;;;;;25.28;41.76;101497.56;4990474;28;45581;-78
2021/06/07 07:17:47;;;;;;;;;10.25;10.25;;;;;25.27;40.20;101495.84;5009678;28;45326;-77
2021/06/07 07:20:12;;;;;;;;;17.00;17.00;;;;;25.27;39.64;101498.50;5001423;28;47638;-77
2021/06/07 07:22:38;;;;;;;;;15.00;13.00;;;;;25.28;39.94;101508.25;5017650;28;45284;-80
2021/06/07 07:25:05;;;;;;;;;14.00;12.25;;;;;25.27;39.51;101498.50;4982297;28;45346;-79
2021/06/07 07:27:30;;;;;;;;;13.50;10.75;;;;;25.28;39.99;101505.59;4982474;28;45370;-79
2021/06/07 07:29:57;;;;;;;;;13.50;10.00;;;;;25.29;39.86;101500.22;4973251;28;47060;-78
2021/06/07 07:32:25;;;;;;;;;13.50;13.50;;;;;25.31;40.55;101493.00;4997004;28;45505;-78
2021/06/07 07:34:50;;;;;;;;;11.50;11.00;;;;;25.33;40.27;101492.91;4966318;28;45516;-78
2021/06/07 07:37:16;;;;;;;;;13.75;10.75;;;;;25.35;38.98;101489.25;4978109;28;46168;-78
2021/06/07 07:39:42;;;;;;;;;12.75;10.25;;;;;25.38;39.63;101495.44;4982314;28;47100;-77
2021/06/07 07:42:08;;;;;;;;;13.50;12.00;;;;;25.40;39.26;101494.41;4995273;28;45492;-77
2021/06/07 07:44:34;;;;;;;;;14.00;11.25;;;;;25.40;39.23;101494.41;4995581;28;45421;-81
2021/06/07 07:47:02;;;;;;;;;15.50;12.00;;;;;25.45;38.97;101495.09;4968982;28;45618;-78
2021/06/07 07:49:27;;;;;;;;;14.25;13.50;;;;;25.48;38.19;101502.13;4971411;28;46567;-78
2021/06/07 07:51:52;;;;;;;;;11.25;11.00;;;;;25.50;38.73;101492.25;4975998;28;45740;-77
2021/06/07 07:54:18;;;;;;;;;12.50;12.25;;;;;25.50;38.54;101498.47;4950727;28;47681;-77
2021/06/07 07:56:43;;;;;;;;;12.25;12.00;;;;;25.51;37.83;101499.31;4972325;28;45596;-77
2021/06/07 07:59:09;;;;;;;;;10.25;10.00;;;;;25.51;37.74;101500.19;4960488;28;59162;-82
2021/06/07 08:01:37;;;;;;;;;14.50;11.25;;;;;25.54;37.92;101496.50;4977373;28;49476;-81
2021/06/07 08:04:03;;;;;;;;;14.00;12.00;;;;;25.54;37.59;101500.09;4993777;28;45314;-84
2021/06/07 08:06:28;;;;;;;;;11.25;10.00;;;;;25.50;37.66;101481.56;4994675;28;45442;-82
2021/06/07 08:08:54;;;;;;;;;11.50;10.25;;;;;25.53;37.16;101490.31;5006835;28;45448;-82
2021/06/07 08:11:20;;;;;;;;;13.50;12.75;;;;;25.52;36.98;101488.56;4998871;28;45475;-82
2021/06/07 08:13:45;;;;;;;;;13.75;11.50;;;;;25.53;37.22;101489.44;4999390;28;45452;-80
2021/06/07 08:16:11;;;;;;;;;13.25;12.00;;;;;25.53;36.87;101492.09;4995607;28;45520;-78
2021/06/07 08:18:36;;;;;;;;;11.00;10.50;;;;;25.51;38.20;101480.63;5010494;28;45841;-81
2021/06/07 08:21:02;;;;;;;;;11.00;11.00;;;;;25.55;37.31;101483.13;4993475;28;45444;-82
2021/06/07 08:23:27;;;;;;;;;11.00;11.00;;;;;25.58;37.54;101491.00;5011675;28;45365;-82
2021/06/07 08:25:53;;;;;;;;;14.50;14.50;;;;;25.55;37.48;101482.25;5022321;28;45651;-79
2021/06/07 08:28:19;;;;;;;;;14.25;14.25;;;;;25.59;36.68;101478.50;5010350;28;46377;-75
2021/06/07 08:30:44;;;;;;;;;12.50;12.00;;;;;25.58;36.58;101485.66;4981631;28;45433;-80
2021/06/07 08:33:09;;;;;;;;;15.50;14.75;;;;;25.58;36.91;101480.31;4990532;28;45479;-80
2021/06/07 08:35:35;;;;;;;;;13.75;11.50;;;;;25.59;36.52;101481.16;4997139;28;62159;-81
2021/06/07 08:38:00;;;;;;;;;14.25;12.50;;;;;25.59;36.43;101487.38;4997164;28;52547;-81
2021/06/07 08:40:26;;;;;;;;;12.25;10.25;;;;;25.61;36.75;101484.63;4993345;28;67022;-77
2021/06/07 08:42:51;;;;;;;;;10.50;10.00;;;;;25.61;37.08;101490.84;5002552;28;45310;-89
2021/06/07 08:45:18;;;;;;;;;10.75;10.75;;;;;25.60;36.33;101489.13;4995037;28;45555;-87
2021/06/07 08:47:44;;;;;;;;;14.00;11.00;;;;;25.67;36.16;101494.22;4981662;28;47412;-89
2021/06/07 08:50:10;;;;;;;;;14.25;12.25;;;;;25.63;35.96;101480.13;4999935;28;45672;-89
2021/06/07 08:52:36;;;;;;;;;10.00;10.00;;;;;25.64;35.53;101479.19;5003049;28;45466;-89
2021/06/07 08:55:04;;;;;;;;;14.75;13.75;;;;;25.65;35.47;101480.94;5011648;28;45435;-91
2021/06/07 08:57:29;;;;;;;;;7.50;4.00;;;;;25.65;35.77;101478.25;5005999;28;45420;-91
2021/06/07 08:59:55;;;;;;;;;11.25;10.25;;;;;25.66;35.99;101485.34;5014666;28;60177;-87
2021/06/07 09:02:34;;;;;;;;;11.75;10.75;;;;;25.69;36.04;101487.88;5013738;28;45564;-86
2021/06/07 09:04:59;;;;;;;;;12.75;10.25;;;;;25.72;35.64;101489.59;5003453;28;45440;-86
2021/06/07 09:07:25;;;;;;;;;12.00;10.75;;;;;25.74;36.00;101491.25;5022529;28;45013;-86
2021/06/07 09:10:11;;;;;;;;;12.00;11.25;;;;;25.74;35.28;101485.06;5006071;28;46383;-87
2021/06/07 09:12:38;;;;;;;;;11.50;11.25;;;;;25.75;35.50;101484.97;5013677;28;45483;-87
2021/06/07 09:15:03;;;;;;;;;12.00;10.25;;;;;25.77;35.17;101487.59;4995389;28;45515;-87
2021/06/07 09:17:29;;;;;;;;;12.75;11.50;;;;;25.77;35.25;101484.91;5013039;28;46758;-86
2021/06/07 09:20:14;;;;;;;;;10.25;9.25;;;;;25.79;35.12;101494.59;4999191;28;48939;-86
2021/06/07 09:22:39;;;;;;;;;10.00;8.25;;;;;25.80;34.72;101484.75;4999170;28;45427;-87
2021/06/07 09:25:09;;;;;;;;;10.25;8.50;;;;;25.77;34.50;101488.44;4982381;28;45434;-86
2021/06/07 09:27:34;;;;;;;;;10.00;10.00;;;;;25.79;34.39;101483.03;4979709;28;48804;-86
2021/06/07 09:30:00;;;;;;;;;12.00;10.00;;;;;25.76;34.42;101484.03;5017288;28;45703;-88
2021/06/07 09:32:25;;;;;;;;;8.50;8.50;;;;;25.79;34.01;101485.72;5014017;28;45395;-89
2021/06/07 09:35:08;;;;;;;;;7.75;7.00;;;;;25.81;33.56;101492.75;4983070;28;45653;-89
2021/06/07 09:37:34;;;;;;;;;6.00;6.00;;;;;25.78;33.52;101484.84;5015142;28;45489;-88
2021/06/07 09:40:19;;;;;;;;;6.00;6.00;;;;;25.84;33.42;101491.75;5002245;28;45298;-88
2021/06/07 09:42:58;;;;;;;;;9.00;6.25;;;;;25.82;33.46;101483.78;4989157;28;45460;-76
2021/06/07 09:45:44;;;;;;;;;7.75;7.25;;;;;25.82;33.38;101482.94;4985298;28;45391;-76
2021/06/07 09:48:14;;;;;;;;;7.75;6.50;;;;;25.87;33.57;101480.91;4977685;28;45492;-77
2021/06/07 09:50:59;;;;;;;;;7.50;7.00;;;;;25.87;33.91;101484.44;4967515;28;45819;-78
2021/06/07 09:53:46;;;;;;;;;8.00;8.00;;;;;25.91;34.00;101493.22;5010414;28;45478;-79
2021/06/07 09:56:12;;;;;;;;;8.75;7.00;;;;;25.93;33.89;101481.53;5000850;28;45360;-78
2021/06/07 09:58:39;;;;;;;;;10.00;9.00;;;;;25.95;33.97;101488.59;5011967;28;45537;-77
2021/06/07 10:01:31;;;;;;;;;10.75;9.75;;;;;25.95;33.78;101484.13;4975401;28;45437;-92
2021/06/07 10:03:58;;;;;;;;;9.25;8.50;;;;;25.91;33.39;101482.53;4989943;28;45371;-81
2021/06/07 10:06:23;;;;;;;;;11.00;9.00;;;;;25.96;33.72;101479.63;4960471;28;45312;-80
2021/06/07 10:08:57;;;;;;;;;8.75;8.75;;;;;25.98;34.05;101467.97;5002822;28;46923;-83
2021/06/07 10:11:23;;;;;;;;;8.50;8.00;;;;;26.01;33.65;101478.53;5003230;28;46295;-78
2021/06/07 10:13:49;;;;;;;;;8.50;7.00;;;;;26.04;33.90;101485.53;5003775;28;45388;-75
2021/06/07 10:16:15;;;;;;;;;11.00;10.00;;;;;26.04;33.64;101470.34;4977151;28;45218;-77
2021/06/07 10:18:41;;;;;;;;;8.00;7.25;;;;;26.07;33.92;101474.72;4997298;28;45320;-77
2021/06/07 10:21:08;;;;;;;;;9.25;7.25;;;;;26.09;33.71;101480.88;5010155;28;45475;-77
2021/06/07 10:23:37;;;;;;;;;8.00;8.00;;;;;25.98;33.64;101454.59;5020864;28;45260;-77
2021/06/07 10:26:04;;;;;;;;;7.25;7.25;;;;;26.12;33.83;101465.53;4967432;28;45624;-77
2021/06/07 10:28:31;;;;;;;;;11.50;8.00;;;;;26.13;33.71;101471.75;4987111;28;45431;-76
2021/06/07 10:30:57;;;;;;;;;9.00;9.00;;;;;26.13;33.95;101464.59;4992682;28;45273;-76
2021/06/07 10:33:31;;;;;;;;;8.00;8.00;;;;;26.14;34.17;101462.78;4983955;28;45405;-75
2021/06/07 10:35:57;;;;;;;;;7.00;7.00;;;;;26.13;34.18;101461.91;4965892;28;45399;-76
2021/06/07 10:38:34;;;;;;;;;3.00;1.75;;;;;26.14;34.47;101455.63;4993342;28;45490;-76
2021/06/07 10:41:19;;;;;;;;;9.00;7.75;;;;;26.19;34.40;101461.66;4974894;28;45637;-76
2021/06/07 10:43:49;;;;;;;;;7.75;7.75;;;;;26.18;35.16;101467.94;5002966;28;45728;-76
2021/06/07 10:46:28;;;;;;;;;10.50;7.75;;;;;26.19;34.43;101460.78;4999384;28;45673;-76
2021/06/07 10:48:54;;;;;;;;;7.50;6.75;;;;;26.18;34.91;101459.06;4975322;28;48042;-77
2021/06/07 10:51:25;;;;;;;;;6.00;6.00;;;;;26.18;34.21;101449.22;4969198;28;45632;-76
2021/06/07 10:53:53;;;;;;;;;5.50;5.50;;;;;26.17;35.05;101466.22;4995884;28;45333;-76
2021/06/07 10:56:18;;;;;;;;;6.00;6.00;;;;;26.13;35.29;101445.00;4967348;28;45955;-76
2021/06/07 10:58:50;;;;;;;;;8.00;7.50;;;;;26.14;34.66;101458.31;4959089;28;46937;-78
2021/06/07 11:01:16;;;;;;;;;7.25;6.50;;;;;26.14;35.12;101469.00;5008054;28;45778;-77
2021/06/07 11:03:51;;;;;;;;;8.25;7.75;;;;;26.13;34.25;101469.06;4996547;28;45416;-77
2021/06/07 11:06:16;;;;;;;;;9.00;9.00;;;;;26.09;34.29;101463.00;4983319;28;45477;-77
2021/06/07 11:08:45;;;;;;;;;8.00;7.25;;;;;26.11;35.00;101462.94;5000354;28;54648;-77
2021/06/07 11:11:21;;;;;;;;;10.00;8.75;;;;;26.06;34.81;101444.44;4982459;28;45575;-79
2021/06/07 11:13:48;;;;;;;;;7.75;7.75;;;;;26.15;35.19;101464.53;4982006;28;45480;-78
2021/06/07 11:16:33;;;;;;;;;8.25;7.00;;;;;26.14;35.46;101458.31;4998249;28;45519;-79
2021/06/07 11:19:11;;;;;;;;;8.00;7.00;;;;;26.15;35.37;101454.72;5000890;28;45479;-79